Time;durP1;ratioP1;P1;durP2;ratioP2;P2;SDS_P1;SDS_P2;PMS_P1;PMS_P2;Temp;Humidity;BMP_temperature;BMP_pressure;BME280_temperature;BME280_humidity;BME280_pressure;Samples;Min_cycle;Max_cycle;Signal;HPM_P1;HPM_P2
2023/10/26 00:00:18;;;;;;;6.15;4.90;;;;;;;;;;4954538;28;20073;-75
2023/10/26 00:02:44;;;;;;;6.55;4.43;;;;;;;;;;4952058;28;20050;-74
2023/10/26 00:05:10;;;;;;;2.95;2.65;;;;;;;;;;4955040;28;20079;-75
2023/10/26 00:07:35;;;;;;;3.90;3.15;;;;;;;;;;4945985;28;20096;-75
2023/10/26 00:10:01;;;;;;;3.35;2.65;;;;;;;;;;4952314;28;20045;-75
2023/10/26 00:12:26;;;;;;;1.50;1.40;;;;;;;;;;4939791;28;20538;-75
2023/10/26 00:14:51;;;;;;;2.30;2.00;;;;;;;;;;4977323;28;20516;-75
2023/10/26 00:17:17;;;;;;;4.30;3.38;;;;;;;;;;4977749;28;20073;-74
2023/10/26 00:19:42;;;;;;;3.75;2.83;;;;;;;;;;4951576;28;20134;-74
2023/10/26 00:22:07;;;;;;;3.33;2.63;;;;;;;;;;4945832;28;20060;-74
2023/10/26 00:24:33;;;;;;;2.92;2.58;;;;;;;;;;4920828;28;20046;-73
2023/10/26 00:26:59;;;;;;;2.92;2.30;;;;;;;;;;4930035;28;20035;-73
2023/10/26 00:29:24;;;;;;;2.90;2.05;;;;;;;;;;4951781;28;20502;-73
2023/10/26 00:31:50;;;;;;;1.20;1.10;;;;;;;;;;4970335;28;20039;-74
2023/10/26 00:34:15;;;;;;;2.35;1.95;;;;;;;;;;4953336;28;20030;-74
2023/10/26 00:36:40;;;;;;;2.00;1.70;;;;;;;;;;4952640;28;20528;-74
2023/10/26 00:39:06;;;;;;;0.98;0.90;;;;;;;;;;4965372;28;20046;-73
2023/10/26 00:41:31;;;;;;;1.67;1.58;;;;;;;;;;4970354;28;20659;-73
2023/10/26 00:43:56;;;;;;;1.20;1.10;;;;;;;;;;4957697;28;20057;-73
2023/10/26 00:46:22;;;;;;;0.95;0.95;;;;;;;;;;4967234;28;20038;-72
2023/10/26 00:48:47;;;;;;;1.40;1.10;;;;;;;;;;4939216;28;20688;-73
2023/10/26 00:51:13;;;;;;;1.30;1.20;;;;;;;;;;4951103;28;20088;-72
2023/10/26 00:53:40;;;;;;;0.90;0.90;;;;;;;;;;4949634;28;20118;-72
2023/10/26 00:56:06;;;;;;;1.35;1.00;;;;;;;;;;4968041;28;20042;-72
2023/10/26 00:58:33;;;;;;;1.05;0.98;;;;;;;;;;4971473;28;20043;-72
2023/10/26 01:00:58;;;;;;;0.80;0.80;;;;;;;;;;4975445;28;20495;-72
2023/10/26 01:03:30;;;;;;;2.17;0.88;;;;;;;;;;4944753;28;20072;-72
2023/10/26 01:05:55;;;;;;;;;;;;;;;;;;4956804;28;20064;-72
2023/10/26 01:08:20;;;;;;;0.80;0.80;;;;;;;;;;4972317;28;19957;-73
2023/10/26 01:10:46;;;;;;;0.60;0.60;;;;;;;;;;4954410;28;20054;-72
2023/10/26 01:13:13;;;;;;;2.20;0.80;;;;;;;;;;4960825;28;20031;-71
2023/10/26 01:15:38;;;;;;;0.63;0.63;;;;;;;;;;4975305;28;20159;-72
2023/10/26 01:18:04;;;;;;;0.50;0.50;;;;;;;;;;4949862;28;20534;-72
2023/10/26 01:20:29;;;;;;;0.95;0.65;;;;;;;;;;4949917;28;20446;-74
2023/10/26 01:22:54;;;;;;;0.52;0.52;;;;;;;;;;4951127;28;20032;-73
2023/10/26 01:25:20;;;;;;;0.80;0.63;;;;;;;;;;4954072;28;20118;-73
2023/10/26 01:27:45;;;;;;;0.68;0.60;;;;;;;;;;4959297;28;20049;-73
2023/10/26 01:30:12;;;;;;;0.85;0.50;;;;;;;;;;4981899;28;20491;-73
2023/10/26 01:32:38;;;;;;;0.63;0.50;;;;;;;;;;4955667;28;20067;-73
2023/10/26 01:35:04;;;;;;;0.50;0.50;;;;;;;;;;4957993;28;20066;-72
2023/10/26 01:37:29;;;;;;;0.50;0.50;;;;;;;;;;4953998;28;20061;-72
2023/10/26 01:39:55;;;;;;;0.50;0.50;;;;;;;;;;4963199;28;20088;-72
2023/10/26 01:42:20;;;;;;;0.40;0.40;;;;;;;;;;4951465;28;20051;-73
2023/10/26 01:44:45;;;;;;;0.80;0.75;;;;;;;;;;4954257;28;20523;-73
2023/10/26 01:47:12;;;;;;;1.88;0.80;;;;;;;;;;4984939;28;20039;-73
2023/10/26 01:49:38;;;;;;;0.60;0.60;;;;;;;;;;4958087;28;20057;-73
2023/10/26 01:52:04;;;;;;;1.02;1.02;;;;;;;;;;4970854;28;20118;-73
2023/10/26 01:54:29;;;;;;;0.98;0.95;;;;;;;;;;4954531;28;20038;-72
2023/10/26 01:56:55;;;;;;;1.02;0.98;;;;;;;;;;4955745;28;20044;-73
2023/10/26 01:59:20;;;;;;;1.13;0.90;;;;;;;;;;4958923;28;20501;-73
2023/10/26 02:01:45;;;;;;;0.80;0.70;;;;;;;;;;4947918;28;21773;-72
2023/10/26 02:04:11;;;;;;;1.10;1.00;;;;;;;;;;4949812;28;20045;-73
2023/10/26 02:06:36;;;;;;;0.60;0.60;;;;;;;;;;4955975;28;20102;-72
2023/10/26 02:09:02;;;;;;;0.60;0.60;;;;;;;;;;4951940;28;20537;-74
2023/10/26 02:11:27;;;;;;;1.27;1.20;;;;;;;;;;4952769;28;20046;-74
2023/10/26 02:13:53;;;;;;;1.00;0.82;;;;;;;;;;4945392;28;20069;-72
2023/10/26 02:16:20;;;;;;;0.70;0.70;;;;;;;;;;4952057;28;20051;-75
2023/10/26 02:18:45;;;;;;;2.35;0.90;;;;;;;;;;4964532;28;20039;-75
2023/10/26 02:21:11;;;;;;;0.40;0.40;;;;;;;;;;4974202;28;20506;-74
2023/10/26 02:23:39;;;;;;;1.13;1.02;;;;;;;;;;4977751;28;20100;-73
2023/10/26 02:26:04;;;;;;;1.10;1.00;;;;;;;;;;4953126;28;20065;-72
2023/10/26 02:28:29;;;;;;;1.50;1.40;;;;;;;;;;4946050;28;20070;-73
2023/10/26 02:30:55;;;;;;;1.08;0.98;;;;;;;;;;4964309;28;20120;-73
2023/10/26 02:33:20;;;;;;;1.30;1.20;;;;;;;;;;4967135;28;20042;-73
2023/10/26 02:35:46;;;;;;;1.48;1.38;;;;;;;;;;4973877;28;20143;-73
2023/10/26 02:38:12;;;;;;;1.30;1.20;;;;;;;;;;4941713;28;20027;-73
2023/10/26 02:40:38;;;;;;;1.00;0.88;;;;;;;;;;4970007;28;20443;-73
2023/10/26 02:43:04;;;;;;;0.80;0.80;;;;;;;;;;4931306;28;20034;-74
2023/10/26 02:45:30;;;;;;;1.30;1.20;;;;;;;;;;5000390;28;20040;-74
2023/10/26 02:47:56;;;;;;;2.30;1.83;;;;;;;;;;4962080;28;20079;-74
2023/10/26 02:50:21;;;;;;;1.75;1.65;;;;;;;;;;4950732;28;20412;-74
2023/10/26 02:52:47;;;;;;;2.65;1.80;;;;;;;;;;4957002;28;20534;-75
2023/10/26 02:55:12;;;;;;;2.15;1.77;;;;;;;;;;4944975;28;20072;-73
2023/10/26 02:57:37;;;;;;;1.00;0.77;;;;;;;;;;4958094;28;20031;-75
2023/10/26 03:00:05;;;;;;;0.70;0.70;;;;;;;;;;4955847;28;20043;-73
2023/10/26 03:02:30;;;;;;;0.75;0.73;;;;;;;;;;4959574;28;20121;-73
2023/10/26 03:04:55;;;;;;;1.90;1.80;;;;;;;;;;4941296;28;20272;-73
2023/10/26 03:07:22;;;;;;;2.25;1.98;;;;;;;;;;4958491;28;20760;-73
2023/10/26 03:09:51;;;;;;;1.63;1.42;;;;;;;;;;4980532;28;20043;-74
2023/10/26 03:12:18;;;;;;;0.70;0.70;;;;;;;;;;4941402;28;20222;-74
2023/10/26 03:14:44;;;;;;;0.88;0.77;;;;;;;;;;4951980;28;20042;-75
2023/10/26 03:17:10;;;;;;;1.90;1.55;;;;;;;;;;4955545;28;20050;-75
2023/10/26 03:19:36;;;;;;;1.50;1.25;;;;;;;;;;4972234;28;20082;-75
2023/10/26 03:22:01;;;;;;;1.15;1.05;;;;;;;;;;4955424;28;20051;-75
2023/10/26 03:24:26;;;;;;;1.20;1.13;;;;;;;;;;4977545;28;20059;-75
2023/10/26 03:26:52;;;;;;;1.63;1.15;;;;;;;;;;4974364;28;20046;-75
2023/10/26 03:29:17;;;;;;;2.75;1.63;;;;;;;;;;4956800;28;20126;-75
2023/10/26 03:31:43;;;;;;;1.63;1.33;;;;;;;;;;4969622;28;20096;-75
2023/10/26 03:34:09;;;;;;;1.02;0.93;;;;;;;;;;4956052;28;20047;-75
2023/10/26 03:36:34;;;;;;;1.55;1.15;;;;;;;;;;4965710;28;20038;-74
2023/10/26 03:39:00;;;;;;;1.20;1.10;;;;;;;;;;4945287;28;20043;-74
2023/10/26 03:41:25;;;;;;;1.42;1.33;;;;;;;;;;4954794;28;20786;-73
2023/10/26 03:43:51;;;;;;;1.38;1.20;;;;;;;;;;4955410;28;20039;-74
2023/10/26 03:46:16;;;;;;;0.70;0.70;;;;;;;;;;4965248;28;20043;-74
2023/10/26 03:48:42;;;;;;;1.08;0.70;;;;;;;;;;4955203;28;20047;-74
2023/10/26 03:51:08;;;;;;;0.80;0.80;;;;;;;;;;4955388;28;20042;-75
2023/10/26 03:53:33;;;;;;;1.08;1.00;;;;;;;;;;4961861;28;20704;-75
2023/10/26 03:55:59;;;;;;;0.88;0.73;;;;;;;;;;4953216;28;20399;-75
2023/10/26 03:58:25;;;;;;;2.58;1.20;;;;;;;;;;4955347;28;20035;-74
2023/10/26 04:00:51;;;;;;;0.85;0.85;;;;;;;;;;4967774;28;20120;-73
2023/10/26 04:03:17;;;;;;;0.90;0.90;;;;;;;;;;4962673;28;20043;-74
2023/10/26 04:05:42;;;;;;;0.98;0.93;;;;;;;;;;4943675;28;20035;-74
2023/10/26 04:08:09;;;;;;;0.63;0.63;;;;;;;;;;4947047;28;20125;-74
2023/10/26 04:10:35;;;;;;;1.20;1.10;;;;;;;;;;4955779;28;20055;-73
2023/10/26 04:13:00;;;;;;;0.60;0.60;;;;;;;;;;4956409;28;20635;-73
2023/10/26 04:15:26;;;;;;;2.45;1.10;;;;;;;;;;4970955;28;20043;-74
2023/10/26 04:17:52;;;;;;;0.75;0.70;;;;;;;;;;4963894;28;20045;-73
2023/10/26 04:20:17;;;;;;;0.70;0.70;;;;;;;;;;4956445;28;20812;-74
2023/10/26 04:22:42;;;;;;;0.80;0.60;;;;;;;;;;4941110;28;20039;-73
2023/10/26 04:25:08;;;;;;;1.63;0.45;;;;;;;;;;4952257;28;20046;-72
2023/10/26 04:27:34;;;;;;;0.52;0.52;;;;;;;;;;4948228;28;20047;-74
2023/10/26 04:29:59;;;;;;;0.60;0.50;;;;;;;;;;4936892;28;20233;-74
2023/10/26 04:32:25;;;;;;;0.60;0.50;;;;;;;;;;4970215;28;20119;-74
2023/10/26 04:34:50;;;;;;;1.00;0.52;;;;;;;;;;4952848;28;20449;-74
2023/10/26 04:37:16;;;;;;;0.50;0.50;;;;;;;;;;4947029;28;20047;-74
2023/10/26 04:39:43;;;;;;;0.70;0.60;;;;;;;;;;4966678;28;20066;-73
2023/10/26 04:42:09;;;;;;;1.45;0.60;;;;;;;;;;4941754;28;20120;-74
2023/10/26 04:44:34;;;;;;;0.60;0.50;;;;;;;;;;4952979;28;20050;-73
2023/10/26 04:47:00;;;;;;;0.95;0.70;;;;;;;;;;4957791;28;20042;-73
2023/10/26 04:49:25;;;;;;;0.40;0.38;;;;;;;;;;4952631;28;20039;-73
2023/10/26 04:51:51;;;;;;;0.40;0.40;;;;;;;;;;4946163;28;20112;-73
2023/10/26 04:54:16;;;;;;;0.40;0.40;;;;;;;;;;4960476;28;20108;-73
2023/10/26 04:56:43;;;;;;;0.40;0.40;;;;;;;;;;4963839;28;20045;-74
2023/10/26 04:59:08;;;;;;;0.70;0.50;;;;;;;;;;4951202;28;20541;-74
2023/10/26 05:01:33;;;;;;;0.30;0.30;;;;;;;;;;4973489;28;20051;-74
2023/10/26 05:03:59;;;;;;;0.40;0.40;;;;;;;;;;4953327;28;20109;-74
2023/10/26 05:06:24;;;;;;;0.77;0.50;;;;;;;;;;4947911;28;20048;-73
2023/10/26 05:08:50;;;;;;;1.08;1.05;;;;;;;;;;4962059;28;20058;-74
2023/10/26 05:11:15;;;;;;;0.57;0.57;;;;;;;;;;4936902;28;20070;-74
2023/10/26 05:13:41;;;;;;;0.50;0.50;;;;;;;;;;4957926;28;20038;-74
2023/10/26 05:16:08;;;;;;;2.20;0.50;;;;;;;;;;4966536;28;20077;-78
2023/10/26 05:18:33;;;;;;;0.50;0.40;;;;;;;;;;4966202;28;20044;-75
2023/10/26 05:20:59;;;;;;;1.95;0.57;;;;;;;;;;4965196;28;20062;-76
2023/10/26 05:23:25;;;;;;;2.25;0.90;;;;;;;;;;4966396;28;20067;-75
2023/10/26 05:25:51;;;;;;;4.80;0.68;;;;;;;;;;4968579;28;20041;-76
2023/10/26 05:28:16;;;;;;;1.95;0.93;;;;;;;;;;4955700;28;20105;-76
2023/10/26 05:30:41;;;;;;;1.08;0.98;;;;;;;;;;4958846;28;20037;-75
2023/10/26 05:33:07;;;;;;;1.02;0.50;;;;;;;;;;4971979;28;20036;-76
2023/10/26 05:35:33;;;;;;;0.85;0.68;;;;;;;;;;4965144;28;20101;-77
2023/10/26 05:37:58;;;;;;;0.77;0.77;;;;;;;;;;4939709;28;20721;-77
2023/10/26 05:40:24;;;;;;;1.83;1.38;;;;;;;;;;4922800;28;20057;-76
2023/10/26 05:42:49;;;;;;;1.75;1.00;;;;;;;;;;4941276;28;20465;-77
2023/10/26 05:45:15;;;;;;;1.23;0.80;;;;;;;;;;4954237;28;20477;-76
2023/10/26 05:47:40;;;;;;;1.30;1.15;;;;;;;;;;4935432;28;20089;-76
2023/10/26 05:50:06;;;;;;;1.80;1.13;;;;;;;;;;4933547;28;20034;-76
2023/10/26 05:52:31;;;;;;;1.60;1.10;;;;;;;;;;4953960;28;20046;-77
2023/10/26 05:54:58;;;;;;;1.63;0.80;;;;;;;;;;4954939;28;20031;-76
2023/10/26 05:57:25;;;;;;;2.38;1.48;;;;;;;;;;4966028;28;20035;-76
2023/10/26 05:59:51;;;;;;;2.00;0.73;;;;;;;;;;4962814;28;20042;-76
2023/10/26 06:02:17;;;;;;;2.10;1.85;;;;;;;;;;4949895;28;20042;-76
2023/10/26 06:04:42;;;;;;;1.45;1.20;;;;;;;;;;4939528;28;20349;-76
2023/10/26 06:07:07;;;;;;;0.60;0.60;;;;;;;;;;4954123;28;20075;-76
2023/10/26 06:09:33;;;;;;;3.65;1.15;;;;;;;;;;4940839;28;20034;-76
2023/10/26 06:11:58;;;;;;;2.30;1.45;;;;;;;;;;4957998;28;20035;-76
2023/10/26 06:14:24;;;;;;;2.58;2.00;;;;;;;;;;4957923;28;20046;-75
2023/10/26 06:16:50;;;;;;;3.35;2.15;;;;;;;;;;4929616;28;20100;-75
2023/10/26 06:19:21;;;;;;;3.05;1.75;;;;;;;;;;4951541;28;20124;-75
2023/10/26 06:21:47;;;;;;;2.25;1.95;;;;;;;;;;4952629;28;20127;-75
2023/10/26 06:24:12;;;;;;;2.53;2.00;;;;;;;;;;4925675;28;20121;-75
2023/10/26 06:26:38;;;;;;;2.92;1.80;;;;;;;;;;4946593;28;20046;-75
2023/10/26 06:29:03;;;;;;;1.40;1.25;;;;;;;;;;4961168;28;20043;-75
2023/10/26 06:31:29;;;;;;;2.08;1.55;;;;;;;;;;4967046;28;20043;-75
2023/10/26 06:33:54;;;;;;;2.63;1.60;;;;;;;;;;4961268;28;20050;-74
2023/10/26 06:36:19;;;;;;;2.13;1.45;;;;;;;;;;4953898;28;20123;-75
2023/10/26 06:38:45;;;;;;;2.00;1.55;;;;;;;;;;4936067;28;20426;-75
2023/10/26 06:41:10;;;;;;;1.50;1.27;;;;;;;;;;4969079;28;20043;-75
2023/10/26 06:43:37;;;;;;;2.47;1.15;;;;;;;;;;4964838;28;20053;-74
2023/10/26 06:46:03;;;;;;;0.63;0.63;;;;;;;;;;4957328;28;20821;-74
2023/10/26 06:48:28;;;;;;;1.17;0.80;;;;;;;;;;4959734;28;20181;-75
2023/10/26 06:50:58;;;;;;;2.85;1.70;;;;;;;;;;4982183;28;20035;-75
2023/10/26 06:53:24;;;;;;;2.35;1.42;;;;;;;;;;4974034;28;20088;-76
2023/10/26 06:55:51;;;;;;;2.40;1.20;;;;;;;;;;4958477;28;20054;-76
2023/10/26 06:58:16;;;;;;;1.50;1.30;;;;;;;;;;4958366;28;20566;-75
2023/10/26 07:00:41;;;;;;;1.42;1.05;;;;;;;;;;4956356;28;20126;-75
2023/10/26 07:03:07;;;;;;;2.38;1.35;;;;;;;;;;4971989;28;20062;-76
2023/10/26 07:05:33;;;;;;;1.15;1.05;;;;;;;;;;5019547;28;20029;-75
2023/10/26 07:07:59;;;;;;;1.70;0.98;;;;;;;;;;4985154;28;20048;-75
2023/10/26 07:10:26;;;;;;;1.13;1.02;;;;;;;;;;4963567;28;20465;-75
2023/10/26 07:12:51;;;;;;;1.10;0.85;;;;;;;;;;4952024;28;20042;-75
2023/10/26 07:15:17;;;;;;;0.82;0.80;;;;;;;;;;4967315;28;20040;-75
2023/10/26 07:17:43;;;;;;;1.85;0.90;;;;;;;;;;4949932;28;20830;-75
2023/10/26 07:20:09;;;;;;;0.50;0.50;;;;;;;;;;4967671;28;1163924;-75
2023/10/26 07:22:35;;;;;;;0.70;0.70;;;;;;;;;;5028116;28;20597;-75
2023/10/26 07:25:02;;;;;;;0.95;0.80;;;;;;;;;;5040075;28;20089;-75
2023/10/26 07:27:28;;;;;;;0.80;0.70;;;;;;;;;;4990464;28;20040;-75
2023/10/26 07:29:53;;;;;;;2.05;0.52;;;;;;;;;;5001268;28;20095;-75
2023/10/26 07:32:19;;;;;;;1.60;0.70;;;;;;;;;;4959984;28;20070;-75
2023/10/26 07:34:44;;;;;;;1.85;0.77;;;;;;;;;;5009466;28;20047;-75
2023/10/26 07:37:10;;;;;;;0.90;0.70;;;;;;;;;;4973936;28;20032;-75
2023/10/26 07:39:36;;;;;;;1.80;1.13;;;;;;;;;;4996259;28;20043;-75
2023/10/26 07:42:02;;;;;;;1.45;1.08;;;;;;;;;;5022423;28;20033;-75
2023/10/26 07:44:30;;;;;;;0.73;0.73;;;;;;;;;;4982376;28;20036;-75
2023/10/26 07:46:56;;;;;;;0.40;0.40;;;;;;;;;;4987130;28;20046;-75
2023/10/26 07:49:22;;;;;;;1.33;1.20;;;;;;;;;;5008362;28;20122;-75
2023/10/26 07:51:49;;;;;;;1.30;1.20;;;;;;;;;;5019199;28;20032;-76
2023/10/26 07:54:15;;;;;;;2.08;1.48;;;;;;;;;;4982465;28;20049;-75
2023/10/26 07:56:40;;;;;;;1.65;1.20;;;;;;;;;;4961095;28;20030;-74
2023/10/26 07:59:06;;;;;;;0.73;0.73;;;;;;;;;;5013457;28;20039;-75
2023/10/26 08:01:31;;;;;;;1.17;0.88;;;;;;;;;;4980195;28;20064;-76
2023/10/26 08:03:57;;;;;;;1.15;0.90;;;;;;;;;;5004603;28;20065;-76
2023/10/26 08:06:23;;;;;;;1.88;0.93;;;;;;;;;;5011479;28;20063;-75
2023/10/26 08:08:51;;;;;;;1.73;1.27;;;;;;;;;;4998429;28;20102;-75
2023/10/26 08:11:17;;;;;;;1.60;0.98;;;;;;;;;;5035043;28;20045;-75
2023/10/26 08:13:43;;;;;;;0.85;0.77;;;;;;;;;;5008796;28;20649;-75
2023/10/26 08:16:08;;;;;;;2.38;1.60;;;;;;;;;;5024359;28;20079;-75
2023/10/26 08:18:35;;;;;;;1.75;1.25;;;;;;;;;;5020133;28;20118;-75
2023/10/26 08:21:03;;;;;;;1.35;1.13;;;;;;;;;;4985867;28;20320;-75
2023/10/26 08:23:29;;;;;;;1.65;1.27;;;;;;;;;;4948646;28;20122;-75
2023/10/26 08:25:56;;;;;;;2.70;1.77;;;;;;;;;;5007492;28;20043;-75
2023/10/26 08:28:21;;;;;;;1.90;1.50;;;;;;;;;;4976312;28;20044;-75
2023/10/26 08:30:47;;;;;;;2.30;1.77;;;;;;;;;;4976743;28;20043;-75
2023/10/26 08:33:13;;;;;;;1.38;1.10;;;;;;;;;;5002272;28;20032;-75
2023/10/26 08:35:41;;;;;;;2.03;1.50;;;;;;;;;;4977723;28;20159;-75
2023/10/26 08:38:06;;;;;;;2.65;1.65;;;;;;;;;;4966321;28;20450;-75
2023/10/26 08:40:33;;;;;;;2.30;1.42;;;;;;;;;;5000468;28;20050;-75
2023/10/26 08:43:00;;;;;;;1.58;1.20;;;;;;;;;;5018863;28;20059;-75
2023/10/26 08:45:27;;;;;;;2.42;1.20;;;;;;;;;;5016263;28;20058;-75
2023/10/26 08:47:56;;;;;;;2.38;1.67;;;;;;;;;;5010744;28;20046;-75
2023/10/26 08:50:23;;;;;;;2.20;1.38;;;;;;;;;;4962763;28;20028;-75
2023/10/26 08:52:51;;;;;;;2.25;1.38;;;;;;;;;;4959045;28;20039;-75
2023/10/26 08:55:17;;;;;;;1.30;1.00;;;;;;;;;;4975357;28;20038;-75
2023/10/26 08:57:47;;;;;;;2.05;1.38;;;;;;;;;;4998413;28;20033;-75
2023/10/26 09:00:13;;;;;;;2.85;1.80;;;;;;;;;;4987970;28;20040;-75
2023/10/26 09:02:39;;;;;;;1.95;1.30;;;;;;;;;;5022436;28;20062;-75
2023/10/26 09:05:04;;;;;;;2.33;1.73;;;;;;;;;;4986699;28;20053;-75
2023/10/26 09:07:30;;;;;;;1.05;0.95;;;;;;;;;;4989201;28;20033;-75
2023/10/26 09:09:56;;;;;;;2.75;1.50;;;;;;;;;;4980261;28;20044;-75
2023/10/26 09:12:21;;;;;;;3.30;1.45;;;;;;;;;;5011673;28;20499;-75
2023/10/26 09:15:03;;;;;;;2.50;1.33;;;;;;;;;;5009487;28;20516;-75
2023/10/26 09:17:30;;;;;;;1.27;1.00;;;;;;;;;;4934923;28;20063;-75
2023/10/26 09:19:57;;;;;;;3.85;1.80;;;;;;;;;;5002975;28;20047;-75
2023/10/26 09:22:38;;;;;;;3.42;2.10;;;;;;;;;;5015796;28;20042;-75
2023/10/26 09:25:11;;;;;;;3.65;1.65;;;;;;;;;;5013800;28;20094;-75
2023/10/26 09:27:37;;;;;;;2.88;1.77;;;;;;;;;;4998400;28;20093;-75
2023/10/26 09:30:04;;;;;;;3.03;1.70;;;;;;;;;;5026529;28;20571;-75
2023/10/26 09:32:36;;;;;;;2.90;1.38;;;;;;;;;;5029803;28;20037;-75
2023/10/26 09:35:06;;;;;;;1.85;1.05;;;;;;;;;;4978691;28;20058;-74
2023/10/26 09:37:50;;;;;;;1.40;1.27;;;;;;;;;;4989562;28;20035;-75
2023/10/26 09:40:15;;;;;;;1.35;1.10;;;;;;;;;;5005666;28;20046;-75
2023/10/26 09:42:42;;;;;;;2.95;1.50;;;;;;;;;;5019391;28;20041;-75
2023/10/26 09:45:08;;;;;;;1.95;0.90;;;;;;;;;;4977540;28;20038;-74
2023/10/26 09:47:34;;;;;;;1.60;0.90;;;;;;;;;;5021331;28;20047;-75
2023/10/26 09:50:00;;;;;;;0.70;0.70;;;;;;;;;;4978230;28;20036;-75
2023/10/26 09:52:25;;;;;;;1.98;1.10;;;;;;;;;;5008303;28;20682;-75
2023/10/26 09:54:51;;;;;;;2.85;1.90;;;;;;;;;;4997219;28;20121;-75
2023/10/26 09:57:22;;;;;;;1.60;1.40;;;;;;;;;;5045975;28;20130;-75
2023/10/26 09:59:52;;;;;;;3.38;1.65;;;;;;;;;;5007889;28;20027;-75
2023/10/26 10:02:19;;;;;;;1.35;1.05;;;;;;;;;;4978705;28;20055;-75
2023/10/26 10:04:46;;;;;;;1.17;0.90;;;;;;;;;;4964167;28;20126;-75
2023/10/26 10:07:38;;;;;;;4.10;1.92;;;;;;;;;;4946545;28;20045;-75
2023/10/26 10:10:09;;;;;;;1.15;1.00;;;;;;;;;;4966402;28;20096;-75
2023/10/26 10:12:36;;;;;;;1.10;1.05;;;;;;;;;;4992387;28;20041;-74
2023/10/26 10:15:13;;;;;;;2.88;1.50;;;;;;;;;;4957290;28;20535;-75
2023/10/26 10:17:44;;;;;;;1.45;1.23;;;;;;;;;;4953624;28;20080;-75
2023/10/26 10:20:19;;;;;;;1.48;1.30;;;;;;;;;;4998158;28;20065;-75
2023/10/26 10:22:44;;;;;;;1.40;1.30;;;;;;;;;;4983068;28;20194;-75
2023/10/26 10:25:10;;;;;;;1.83;1.40;;;;;;;;;;4997149;28;20592;-74
2023/10/26 10:27:39;;;;;;;3.08;1.50;;;;;;;;;;4992567;28;20118;-75
2023/10/26 10:30:09;;;;;;;1.77;1.42;;;;;;;;;;4951100;28;20049;-75
2023/10/26 10:32:53;;;;;;;0.83;0.83;;;;;;;;;;4932897;28;20431;-74
2023/10/26 10:35:21;;;;;;;1.67;1.42;;;;;;;;;;4930670;28;20067;-76
2023/10/26 10:38:11;;;;;;;1.50;1.23;;;;;;;;;;5002535;28;20047;-77
2023/10/26 10:40:38;;;;;;;2.92;1.75;;;;;;;;;;5003526;28;20046;-75
2023/10/26 10:43:04;;;;;;;1.48;1.35;;;;;;;;;;5009734;28;20540;-77
2023/10/26 10:45:30;;;;;;;2.40;1.20;;;;;;;;;;5009474;28;20043;-75
2023/10/26 10:47:57;;;;;;;1.08;0.80;;;;;;;;;;5017645;28;20037;-76
2023/10/26 10:50:25;;;;;;;1.48;1.38;;;;;;;;;;5017738;28;20042;-76
2023/10/26 10:52:53;;;;;;;1.35;0.88;;;;;;;;;;4973048;28;20062;-75
2023/10/26 10:55:26;;;;;;;1.13;0.85;;;;;;;;;;4948177;28;20144;-76
2023/10/26 10:57:58;;;;;;;0.68;0.68;;;;;;;;;;4952573;28;20572;-76
2023/10/26 11:00:48;;;;;;;1.95;1.58;;;;;;;;;;4964078;28;20045;-75
2023/10/26 11:03:20;;;;;;;1.90;1.30;;;;;;;;;;4973089;28;20063;-75
2023/10/26 11:05:46;;;;;;;2.60;1.40;;;;;;;;;;4957395;28;20047;-75
2023/10/26 11:08:11;;;;;;;1.42;1.33;;;;;;;;;;4980326;28;20133;-75
2023/10/26 11:10:38;;;;;;;2.22;1.58;;;;;;;;;;4934624;28;20046;-75
2023/10/26 11:13:04;;;;;;;3.15;1.40;;;;;;;;;;4961661;28;20035;-75
2023/10/26 11:15:37;;;;;;;1.85;1.40;;;;;;;;;;4951910;28;20422;-75
2023/10/26 11:18:04;;;;;;;1.42;1.23;;;;;;;;;;4957620;28;20519;-75
2023/10/26 11:20:41;;;;;;;2.05;1.35;;;;;;;;;;4959979;28;20117;-75
2023/10/26 11:23:08;;;;;;;1.75;1.23;;;;;;;;;;4964462;28;20160;-75
2023/10/26 11:25:34;;;;;;;1.55;1.00;;;;;;;;;;4967691;28;20035;-75
2023/10/26 11:27:59;;;;;;;1.67;1.30;;;;;;;;;;4999360;28;20032;-75
2023/10/26 11:30:25;;;;;;;1.52;1.42;;;;;;;;;;4974315;28;20052;-75
2023/10/26 11:32:50;;;;;;;1.40;0.95;;;;;;;;;;4982875;28;20054;-75
2023/10/26 11:35:16;;;;;;;1.45;1.15;;;;;;;;;;4999526;28;20125;-75
2023/10/26 11:37:48;;;;;;;1.50;1.38;;;;;;;;;;5004787;28;20040;-76
2023/10/26 11:40:15;;;;;;;1.20;1.05;;;;;;;;;;5021440;28;20190;-75
2023/10/26 11:42:53;;;;;;;2.92;1.73;;;;;;;;;;4988856;28;20076;-76
2023/10/26 11:45:20;;;;;;;1.20;1.10;;;;;;;;;;4976332;28;20081;-75
2023/10/26 11:47:50;;;;;;;2.92;1.17;;;;;;;;;;4977040;28;20043;-75
2023/10/26 11:50:24;;;;;;;1.55;1.00;;;;;;;;;;4979043;28;20064;-75
2023/10/26 11:52:51;;;;;;;1.42;1.05;;;;;;;;;;4961961;28;20624;-75
2023/10/26 11:55:17;;;;;;;1.27;1.17;;;;;;;;;;4994200;28;20475;-75
2023/10/26 11:57:44;;;;;;;1.10;1.00;;;;;;;;;;4973912;28;20035;-75
2023/10/26 12:00:11;;;;;;;4.07;1.90;;;;;;;;;;4951291;28;20292;-75
2023/10/26 12:02:37;;;;;;;1.23;1.13;;;;;;;;;;4981970;28;20502;-75
2023/10/26 12:05:03;;;;;;;1.40;1.17;;;;;;;;;;4977782;28;20048;-75
2023/10/26 12:07:30;;;;;;;1.75;1.30;;;;;;;;;;4976562;28;20077;-75
2023/10/26 12:09:55;;;;;;;1.92;1.50;;;;;;;;;;4962004;28;20031;-75
2023/10/26 12:12:20;;;;;;;1.73;1.20;;;;;;;;;;4966462;28;20193;-75
2023/10/26 12:14:47;;;;;;;1.45;1.15;;;;;;;;;;4973326;28;20089;-74
2023/10/26 12:17:12;;;;;;;2.40;1.38;;;;;;;;;;4961608;28;20193;-74
2023/10/26 12:19:38;;;;;;;1.20;1.10;;;;;;;;;;4976914;28;20028;-75
2023/10/26 12:22:03;;;;;;;1.98;1.52;;;;;;;;;;4947089;28;20563;-75
2023/10/26 12:24:29;;;;;;;1.38;1.27;;;;;;;;;;4979637;28;20176;-75
2023/10/26 12:26:57;;;;;;;3.28;1.50;;;;;;;;;;4986722;28;20136;-75
2023/10/26 12:29:23;;;;;;;1.13;1.02;;;;;;;;;;4970623;28;20502;-75
2023/10/26 12:31:48;;;;;;;1.75;1.60;;;;;;;;;;4961123;28;20039;-75
2023/10/26 12:34:14;;;;;;;2.60;1.42;;;;;;;;;;4953653;28;20121;-75
2023/10/26 12:36:40;;;;;;;2.00;1.50;;;;;;;;;;4989433;28;20040;-75
2023/10/26 12:39:05;;;;;;;1.02;0.90;;;;;;;;;;4964905;28;20050;-75
2023/10/26 12:41:30;;;;;;;2.42;1.55;;;;;;;;;;4938591;28;20099;-76
2023/10/26 12:43:56;;;;;;;1.00;0.90;;;;;;;;;;4959255;28;20031;-76
2023/10/26 12:46:22;;;;;;;2.92;1.58;;;;;;;;;;4979376;28;20532;-76
2023/10/26 12:48:48;;;;;;;2.00;1.80;;;;;;;;;;4966017;28;20049;-76
2023/10/26 12:51:13;;;;;;;3.30;2.03;;;;;;;;;;4982135;28;20139;-75
2023/10/26 12:53:38;;;;;;;2.90;1.83;;;;;;;;;;4958085;28;20086;-75
2023/10/26 12:56:05;;;;;;;2.28;1.75;;;;;;;;;;4984604;28;20054;-75
2023/10/26 12:58:32;;;;;;;3.50;2.00;;;;;;;;;;4964097;28;20070;-75
2023/10/26 13:00:57;;;;;;;1.30;1.10;;;;;;;;;;4972523;28;20057;-76
2023/10/26 13:03:23;;;;;;;3.20;1.70;;;;;;;;;;4948447;28;20031;-75
2023/10/26 13:05:48;;;;;;;2.53;1.90;;;;;;;;;;4960288;28;20160;-75
2023/10/26 13:08:13;;;;;;;2.88;1.73;;;;;;;;;;4984506;28;20038;-76
2023/10/26 13:10:39;;;;;;;2.42;1.42;;;;;;;;;;4954658;28;20835;-76
2023/10/26 13:13:04;;;;;;;1.65;1.45;;;;;;;;;;4948153;28;20039;-76
2023/10/26 13:15:30;;;;;;;2.88;2.20;;;;;;;;;;4989633;28;20127;-76
2023/10/26 13:17:55;;;;;;;2.70;1.60;;;;;;;;;;4970837;28;20053;-76
2023/10/26 13:20:20;;;;;;;3.10;2.00;;;;;;;;;;4956688;28;20078;-76
2023/10/26 13:22:46;;;;;;;1.88;1.52;;;;;;;;;;4956639;28;20754;-75
2023/10/26 13:25:11;;;;;;;0.90;0.90;;;;;;;;;;4956862;28;20472;-76
2023/10/26 13:27:37;;;;;;;3.38;2.08;;;;;;;;;;4945772;28;20112;-77
2023/10/26 13:30:02;;;;;;;2.63;2.00;;;;;;;;;;4974655;28;20033;-76
2023/10/26 13:32:28;;;;;;;2.88;2.22;;;;;;;;;;5008410;28;20043;-76
2023/10/26 13:34:53;;;;;;;1.45;1.13;;;;;;;;;;4967921;28;20049;-76
2023/10/26 13:37:19;;;;;;;0.93;0.90;;;;;;;;;;4971118;28;20038;-76
2023/10/26 13:39:44;;;;;;;2.22;1.80;;;;;;;;;;4993708;28;20045;-76
2023/10/26 13:42:10;;;;;;;0.82;0.82;;;;;;;;;;4958762;28;20546;-76
2023/10/26 13:44:35;;;;;;;2.67;1.52;;;;;;;;;;4998872;28;20040;-76
2023/10/26 13:47:01;;;;;;;2.03;1.70;;;;;;;;;;4973968;28;20046;-76
2023/10/26 13:49:26;;;;;;;2.05;1.77;;;;;;;;;;4972569;28;20043;-76
2023/10/26 13:51:52;;;;;;;2.22;1.88;;;;;;;;;;4978342;28;20072;-76
2023/10/26 13:54:17;;;;;;;3.05;1.48;;;;;;;;;;4999265;28;20572;-76
2023/10/26 13:56:43;;;;;;;3.45;2.20;;;;;;;;;;4990696;28;20146;-76
2023/10/26 13:59:08;;;;;;;2.85;2.00;;;;;;;;;;4972371;28;20027;-76
2023/10/26 14:01:34;;;;;;;2.85;1.80;;;;;;;;;;4987791;28;20125;-76
2023/10/26 14:03:59;;;;;;;1.80;1.38;;;;;;;;;;4995966;28;20042;-76
2023/10/26 14:06:25;;;;;;;3.03;2.10;;;;;;;;;;4962005;28;20077;-76
2023/10/26 14:08:52;;;;;;;1.48;1.30;;;;;;;;;;4942617;28;20039;-75
2023/10/26 14:11:17;;;;;;;1.55;1.23;;;;;;;;;;4959856;28;20078;-76
2023/10/26 14:13:43;;;;;;;2.05;1.63;;;;;;;;;;4965372;28;20196;-76
2023/10/26 14:16:10;;;;;;;3.75;2.55;;;;;;;;;;4960959;28;20128;-76
2023/10/26 14:18:36;;;;;;;2.83;2.03;;;;;;;;;;4973519;28;20049;-76
2023/10/26 14:21:01;;;;;;;2.10;1.35;;;;;;;;;;4934639;28;20035;-76
2023/10/26 14:23:27;;;;;;;1.75;1.30;;;;;;;;;;4949748;28;20043;-76
2023/10/26 14:25:52;;;;;;;3.75;2.20;;;;;;;;;;4984412;28;20503;-76
2023/10/26 14:28:18;;;;;;;2.20;1.67;;;;;;;;;;4973181;28;20123;-76
2023/10/26 14:30:43;;;;;;;2.47;2.10;;;;;;;;;;4983607;28;20542;-76
2023/10/26 14:33:08;;;;;;;3.20;1.92;;;;;;;;;;4979350;28;20057;-76
2023/10/26 14:35:34;;;;;;;3.53;2.05;;;;;;;;;;4967295;28;20045;-76
2023/10/26 14:38:01;;;;;;;2.47;1.50;;;;;;;;;;4954839;28;20445;-76